Time;durP1;ratioP1;P1;durP2;ratioP2;P2;SDS_P1;SDS_P2;PMS_P1;PMS_P2;Temp;Humidity;BMP_temperature;BMP_pressure;BME280_temperature;BME280_humidity;BME280_pressure;Samples;Min_cycle;Max_cycle;Signal;HPM_P1;HPM_P2
2022/09/09 00:01:45;;;;;;;;;;;13.70;99.90;;;;;;5066070;28;19955;-72
2022/09/09 00:04:17;;;;;;;;;;;13.70;99.90;;;;;;5059697;28;19983;-72
2022/09/09 00:06:55;;;;;;;;;;;13.70;99.90;;;;;;5064238;28;20280;-72
2022/09/09 00:09:28;;;;;;;;;;;13.60;99.90;;;;;;5089570;28;19932;-72
2022/09/09 00:12:09;;;;;;;;;;;13.60;99.90;;;;;;5065964;28;19929;-72
2022/09/09 00:15:00;;;;;;;;;;;13.60;99.90;;;;;;5057634;28;19924;-72
2022/09/09 00:17:39;;;;;;;;;;;13.60;99.90;;;;;;5048371;28;20394;-72
2022/09/09 00:20:23;;;;;;;;;;;13.60;99.90;;;;;;5079228;28;19932;-72
2022/09/09 00:23:10;;;;;;;;;;;13.60;99.90;;;;;;5061881;28;20375;-73
2022/09/09 00:26:01;;;;;;;;;;;13.50;99.90;;;;;;5081801;28;19951;-72
2022/09/09 00:28:35;;;;;;;;;;;13.50;99.90;;;;;;5074351;28;19924;-72
2022/09/09 00:31:16;;;;;;;;;;;13.60;99.90;;;;;;5057706;28;19982;-72
2022/09/09 00:33:49;;;;;;;;;;;13.50;99.90;;;;;;5055505;28;19932;-72
2022/09/09 00:36:25;;;;;;;;;;;13.50;99.90;;;;;;5062628;28;20454;-72
2022/09/09 00:38:59;;;;;;;;;;;13.50;99.90;;;;;;5062090;28;19978;-72
2022/09/09 00:41:31;;;;;;;;;;;13.50;99.90;;;;;;5066072;28;19975;-72
2022/09/09 00:44:10;;;;;;;;;;;13.50;99.90;;;;;;5056628;28;20349;-72
2022/09/09 00:47:05;;;;;;;;;;;13.50;99.90;;;;;;5050284;28;19924;-72
2022/09/09 00:49:49;;;;;;;;;;;13.50;99.90;;;;;;5080929;28;20330;-72
2022/09/09 00:52:20;;;;;;;;;;;13.50;99.90;;;;;;5062286;28;19928;-73
2022/09/09 00:55:04;;;;;;;;;;;13.40;99.90;;;;;;5060800;28;19936;-72
2022/09/09 00:57:36;;;;;;;;;;;13.40;99.90;;;;;;5053542;28;19978;-72
2022/09/09 01:00:20;;;;;;;;;;;13.40;99.90;;;;;;5075674;28;19970;-72
2022/09/09 01:03:08;;;;;;;;;;;13.40;99.90;;;;;;5059939;28;19924;-72
2022/09/09 01:06:01;;;;;;;;;;;13.40;99.90;;;;;;5063477;28;20007;-72
2022/09/09 01:08:53;;;;;;;;;;;13.40;99.90;;;;;;5061344;28;19946;-72
2022/09/09 01:11:22;;;;;;;;;;;13.30;99.90;;;;;;5060713;28;19928;-72
2022/09/09 01:13:52;;;;;;;;;;;13.40;99.90;;;;;;5049059;28;19935;-72
2022/09/09 01:16:23;;;;;;;;;;;13.30;99.90;;;;;;5053378;28;19929;-72
2022/09/09 01:18:52;;;;;;;;;;;13.40;99.90;;;;;;5053121;28;19925;-72
2022/09/09 01:21:44;;;;;;;;;;;13.40;99.90;;;;;;5058375;28;19924;-72
2022/09/09 01:24:21;;;;;;;;;;;13.40;99.90;;;;;;5078988;28;19974;-72
2022/09/09 01:27:13;;;;;;;;;;;13.40;99.90;;;;;;5057346;28;19924;-72
2022/09/09 01:29:45;;;;;;;;;;;13.50;99.90;;;;;;5065049;28;19931;-72
2022/09/09 01:32:37;;;;;;;;;;;13.40;99.90;;;;;;5050456;28;20450;-72
2022/09/09 01:35:18;;;;;;;;;;;13.40;99.90;;;;;;5056394;28;19923;-72
2022/09/09 01:37:49;;;;;;;;;;;13.40;99.90;;;;;;5060825;28;19990;-72
2022/09/09 01:40:22;;;;;;;;;;;13.40;99.90;;;;;;5051320;28;19924;-72
2022/09/09 01:42:55;;;;;;;;;;;13.30;99.90;;;;;;5060452;28;20484;-73
2022/09/09 01:45:22;;;;;;;;;;;13.30;99.90;;;;;;5060171;28;19951;-72
2022/09/09 01:47:54;;;;;;;;;;;13.30;99.90;;;;;;5051705;28;19928;-72
2022/09/09 01:50:46;;;;;;;;;;;13.30;99.90;;;;;;5070729;28;19925;-72
2022/09/09 01:53:19;;;;;;;;;;;13.30;99.90;;;;;;5068997;28;19940;-72
2022/09/09 01:56:02;;;;;;;;;;;13.30;99.90;;;;;;5068270;28;19932;-72
2022/09/09 01:58:49;;;;;;;;;;;13.20;99.90;;;;;;5065832;28;19931;-72
2022/09/09 02:01:30;;;;;;;;;;;13.20;99.90;;;;;;5030925;28;19925;-72
2022/09/09 02:04:08;;;;;;;;;;;13.20;99.90;;;;;;5041918;28;19967;-72
2022/09/09 02:06:37;;;;;;;;;;;13.20;99.90;;;;;;5045203;28;20329;-72
2022/09/09 02:09:22;;;;;;;;;;;13.20;99.90;;;;;;5063729;28;19932;-72
2022/09/09 02:11:58;;;;;;;;;;;13.10;99.90;;;;;;5059684;28;20401;-72
2022/09/09 02:14:41;;;;;;;;;;;13.10;99.90;;;;;;5052754;28;19924;-72
2022/09/09 02:17:15;;;;;;;;;;;13.10;99.90;;;;;;5064692;28;20378;-72
2022/09/09 02:20:02;;;;;;;;;;;13.10;99.90;;;;;;5054595;28;19934;-72
2022/09/09 02:22:43;;;;;;;;;;;13.10;99.90;;;;;;5073245;28;19967;-72
2022/09/09 02:25:17;;;;;;;;;;;13.10;99.90;;;;;;5047522;28;19931;-73
2022/09/09 02:27:51;;;;;;;;;;;13.10;99.90;;;;;;5056210;28;19978;-72
2022/09/09 02:30:23;;;;;;;;;;;13.10;99.90;;;;;;5053287;28;19924;-72
2022/09/09 02:32:56;;;;;;;;;;;13.00;99.90;;;;;;5061338;28;19924;-72
2022/09/09 02:35:43;;;;;;;;;;;13.00;99.90;;;;;;5062563;28;19931;-72
2022/09/09 02:38:20;;;;;;;;;;;13.00;99.90;;;;;;5060074;28;20341;-72
2022/09/09 02:41:01;;;;;;;;;;;13.00;99.90;;;;;;5060559;28;19924;-72
2022/09/09 02:43:34;;;;;;;;;;;12.90;99.90;;;;;;5061497;28;19931;-72
2022/09/09 02:46:20;;;;;;;;;;;12.90;99.90;;;;;;5051420;28;19931;-72
2022/09/09 02:48:57;;;;;;;;;;;12.80;99.90;;;;;;5050298;28;20027;-72
2022/09/09 02:51:38;;;;;;;;;;;12.80;99.90;;;;;;5060254;28;19939;-72
2022/09/09 02:54:16;;;;;;;;;;;12.80;99.90;;;;;;5049270;28;19981;-72
2022/09/09 02:56:51;;;;;;;;;;;12.70;99.90;;;;;;5058192;28;19930;-72
2022/09/09 02:59:31;;;;;;;;;;;12.70;99.90;;;;;;5059443;28;20291;-72
2022/09/09 03:01:58;;;;;;;;;;;12.70;99.90;;;;;;5046137;28;19931;-72
2022/09/09 03:04:31;;;;;;;;;;;12.70;99.90;;;;;;5031747;28;19924;-72
2022/09/09 03:07:03;;;;;;;;;;;12.70;99.90;;;;;;5070893;28;19934;-73
2022/09/09 03:09:35;;;;;;;;;;;12.70;99.90;;;;;;5062757;28;20378;-72
2022/09/09 03:12:07;;;;;;;;;;;12.70;99.90;;;;;;5069846;28;19975;-72
2022/09/09 03:14:39;;;;;;;;;;;12.70;99.90;;;;;;5058768;28;19924;-72
2022/09/09 03:17:12;;;;;;;;;;;12.70;99.90;;;;;;5055820;28;19924;-72
2022/09/09 03:19:52;;;;;;;;;;;12.70;99.90;;;;;;5052650;28;19928;-72
2022/09/09 03:22:25;;;;;;;;;;;12.70;99.90;;;;;;5061575;28;20362;-72
2022/09/09 03:24:58;;;;;;;;;;;12.70;99.90;;;;;;5059419;28;19928;-72
2022/09/09 03:27:30;;;;;;;;;;;12.70;99.90;;;;;;5054507;28;19932;-72
2022/09/09 03:30:03;;;;;;;;;;;12.70;99.90;;;;;;5060972;28;19981;-73
2022/09/09 03:32:35;;;;;;;;;;;12.90;99.90;;;;;;5056492;28;19934;-72
2022/09/09 03:35:07;;;;;;;;;;;12.90;99.90;;;;;;5055259;28;19947;-72
2022/09/09 03:37:38;;;;;;;;;;;12.90;99.90;;;;;;5056763;28;19984;-72
2022/09/09 03:40:12;;;;;;;;;;;12.90;99.90;;;;;;5062142;28;20390;-72
2022/09/09 03:42:45;;;;;;;;;;;12.90;99.90;;;;;;5069199;28;19928;-72
2022/09/09 03:45:11;;;;;;;;;;;12.80;99.90;;;;;;5066349;28;20390;-72
2022/09/09 03:47:43;;;;;;;;;;;12.80;99.90;;;;;;5057727;28;20284;-72
2022/09/09 03:50:10;;;;;;;;;;;12.80;99.90;;;;;;5067092;28;20010;-72
2022/09/09 03:52:42;;;;;;;;;;;12.70;99.90;;;;;;5067779;28;20480;-72
2022/09/09 03:55:19;;;;;;;;;;;12.70;99.90;;;;;;5064057;28;20298;-72
2022/09/09 03:57:50;;;;;;;;;;;12.60;99.90;;;;;;5069554;28;19928;-72
2022/09/09 04:00:18;;;;;;;;;;;12.60;99.90;;;;;;5051009;28;19974;-72
2022/09/09 04:02:53;;;;;;;;;;;12.60;99.90;;;;;;5044880;28;19967;-72
2022/09/09 04:05:25;;;;;;;;;;;12.50;99.90;;;;;;5063097;28;20434;-72
2022/09/09 04:07:56;;;;;;;;;;;12.40;99.90;;;;;;5070885;28;19929;-72
2022/09/09 04:10:29;;;;;;;;;;;12.40;99.90;;;;;;5059306;28;20294;-72
2022/09/09 04:13:01;;;;;;;;;;;12.40;99.90;;;;;;5059993;28;19971;-72
2022/09/09 04:15:35;;;;;;;;;;;12.40;99.90;;;;;;5062403;28;19929;-72
2022/09/09 04:18:07;;;;;;;;;;;12.40;99.90;;;;;;5051627;28;19965;-72
2022/09/09 04:20:38;;;;;;;;;;;12.40;99.90;;;;;;5061715;28;19943;-72
2022/09/09 04:23:10;;;;;;;;;;;12.30;99.90;;;;;;5046589;28;19935;-72
2022/09/09 04:25:46;;;;;;;;;;;12.40;99.90;;;;;;5063132;28;19928;-72
2022/09/09 04:28:19;;;;;;;;;;;12.40;99.90;;;;;;5059821;28;19929;-72
2022/09/09 04:30:46;;;;;;;;;;;12.40;99.90;;;;;;5066128;28;19930;-72
2022/09/09 04:33:13;;;;;;;;;;;12.40;99.90;;;;;;5062792;28;20334;-72
2022/09/09 04:35:47;;;;;;;;;;;12.40;99.90;;;;;;5060696;28;20436;-72
2022/09/09 04:38:22;;;;;;;;;;;12.50;99.90;;;;;;5068084;28;19925;-72
2022/09/09 04:40:54;;;;;;;;;;;12.50;99.90;;;;;;5055495;28;19929;-72
2022/09/09 04:43:22;;;;;;;;;;;12.50;99.90;;;;;;5050204;28;19958;-72
2022/09/09 04:45:54;;;;;;;;;;;12.50;99.90;;;;;;5065932;28;19947;-72
2022/09/09 04:48:26;;;;;;;;;;;12.50;99.90;;;;;;5043007;28;20291;-72
2022/09/09 04:51:00;;;;;;;;;;;12.50;99.90;;;;;;5055818;28;19931;-72
2022/09/09 04:53:34;;;;;;;;;;;12.50;99.90;;;;;;5059793;28;19935;-72
2022/09/09 04:56:10;;;;;;;;;;;12.40;99.90;;;;;;5083110;28;19924;-72
2022/09/09 04:58:55;;;;;;;;;;;12.40;99.90;;;;;;5054533;28;19952;-72
2022/09/09 05:01:36;;;;;;;;;;;12.40;99.90;;;;;;5080499;28;19931;-72
2022/09/09 05:04:08;;;;;;;;;;;12.30;99.90;;;;;;5054515;28;19924;-72
2022/09/09 05:06:39;;;;;;;;;;;12.40;99.90;;;;;;5054448;28;19993;-72
2022/09/09 05:09:12;;;;;;;;;;;12.40;99.90;;;;;;5063981;28;19935;-72
2022/09/09 05:11:46;;;;;;;;;;;12.40;99.90;;;;;;5062622;28;19951;-73
2022/09/09 05:14:37;;;;;;;;;;;12.30;99.90;;;;;;5056688;28;20497;-73
2022/09/09 05:17:04;;;;;;;;;;;12.30;99.90;;;;;;5064931;28;20319;-73
2022/09/09 05:19:37;;;;;;;;;;;12.20;99.90;;;;;;5059168;28;19924;-73
2022/09/09 05:22:09;;;;;;;;;;;12.20;99.90;;;;;;5062812;28;19928;-73
2022/09/09 05:24:44;;;;;;;;;;;12.20;99.90;;;;;;5059425;28;19924;-73
2022/09/09 05:27:16;;;;;;;;;;;12.30;99.90;;;;;;5058942;28;19978;-73
2022/09/09 05:29:48;;;;;;;;;;;12.40;99.90;;;;;;5055665;28;19924;-73
2022/09/09 05:32:20;;;;;;;;;;;12.50;99.90;;;;;;5060301;28;19924;-73
2022/09/09 05:34:52;;;;;;;;;;;12.60;99.90;;;;;;5061518;28;20379;-73
2022/09/09 05:37:23;;;;;;;;;;;12.70;99.90;;;;;;5064589;28;20294;-73
2022/09/09 05:39:50;;;;;;;;;;;12.80;99.90;;;;;;5044157;28;19925;-73
2022/09/09 05:42:21;;;;;;;;;;;12.90;99.90;;;;;;5047453;28;19925;-73
2022/09/09 05:44:54;;;;;;;;;;;13.00;99.90;;;;;;5074325;28;19928;-73
2022/09/09 05:47:27;;;;;;;;;;;13.10;99.90;;;;;;5058782;28;19924;-73
2022/09/09 05:49:55;;;;;;;;;;;13.20;99.90;;;;;;5059165;28;19925;-73
2022/09/09 05:52:27;;;;;;;;;;;13.20;99.90;;;;;;5064940;28;19932;-73
2022/09/09 05:54:59;;;;;;;;;;;13.30;99.90;;;;;;5037553;28;19929;-73
2022/09/09 05:57:31;;;;;;;;;;;13.40;99.90;;;;;;5059716;28;19925;-73
2022/09/09 06:00:03;;;;;;;;;;;13.50;99.90;;;;;;5067771;28;20339;-73
2022/09/09 06:02:41;;;;;;;;;;;13.50;99.90;;;;;;5078818;28;19929;-73
2022/09/09 06:05:10;;;;;;;;;;;13.60;99.90;;;;;;5061233;28;19924;-73
2022/09/09 06:07:44;;;;;;;;;;;13.60;99.90;;;;;;5050776;28;19975;-73
2022/09/09 06:10:16;;;;;;;;;;;13.60;99.90;;;;;;5039525;28;19931;-73
2022/09/09 06:12:47;;;;;;;;;;;13.70;99.90;;;;;;5026936;28;20471;-73
2022/09/09 06:15:19;;;;;;;;;;;13.70;99.90;;;;;;5045703;28;19963;-73
2022/09/09 06:17:55;;;;;;;;;;;13.80;99.90;;;;;;5063017;28;19925;-73
2022/09/09 06:20:29;;;;;;;;;;;13.80;99.90;;;;;;5058062;28;19972;-73
2022/09/09 06:23:03;;;;;;;;;;;13.80;99.90;;;;;;5062635;28;20450;-73
2022/09/09 06:25:30;;;;;;;;;;;13.90;99.90;;;;;;5056415;28;19928;-73
2022/09/09 06:28:02;;;;;;;;;;;14.00;99.90;;;;;;5041886;28;19932;-73
2022/09/09 06:30:34;;;;;;;;;;;14.00;99.90;;;;;;5039818;28;19932;-73
2022/09/09 06:33:05;;;;;;;;;;;14.10;99.90;;;;;;5051220;28;20010;-73
2022/09/09 06:35:37;;;;;;;;;;;14.10;99.90;;;;;;5068631;28;20394;-73
2022/09/09 06:38:09;;;;;;;;;;;14.10;99.90;;;;;;5043723;28;19928;-73
2022/09/09 06:40:42;;;;;;;;;;;14.10;99.90;;;;;;5056913;28;19925;-73
2022/09/09 06:43:09;;;;;;;;;;;14.20;99.90;;;;;;5056380;28;19932;-73
2022/09/09 06:45:41;;;;;;;;;;;14.20;99.90;;;;;;5052176;28;19995;-74
2022/09/09 06:48:08;;;;;;;;;;;14.20;99.90;;;;;;5042725;28;19925;-73
2022/09/09 06:50:40;;;;;;;;;;;14.20;99.90;;;;;;5045363;28;20046;-73
2022/09/09 06:53:16;;;;;;;;;;;14.30;99.90;;;;;;5059524;28;19936;-73
2022/09/09 06:55:48;;;;;;;;;;;14.30;99.90;;;;;;5045785;28;19928;-74
2022/09/09 06:58:19;;;;;;;;;;;14.30;99.90;;;;;;5044936;28;19928;-73
2022/09/09 07:00:52;;;;;;;;;;;14.40;99.90;;;;;;5076830;28;19924;-74
2022/09/09 07:03:19;;;;;;;;;;;14.40;99.90;;;;;;5058337;28;19932;-72
2022/09/09 07:05:56;;;;;;;;;;;14.50;99.90;;;;;;5058490;28;20487;-73
2022/09/09 07:08:28;;;;;;;;;;;14.50;99.90;;;;;;5061035;28;19928;-71
2022/09/09 07:11:01;;;;;;;;;;;14.60;99.90;;;;;;5068276;28;19927;-73
2022/09/09 07:13:35;;;;;;;;;;;14.70;99.90;;;;;;5084312;28;20333;-73
2022/09/09 07:16:05;;;;;;;;;;;14.70;99.90;;;;;;5078502;28;20461;-73
2022/09/09 07:18:33;;;;;;;;;;;14.80;99.90;;;;;;5056650;28;20446;-73
2022/09/09 07:21:06;;;;;;;;;;;14.80;99.90;;;;;;5056521;28;19978;-74
2022/09/09 07:23:39;;;;;;;;;;;14.80;99.90;;;;;;5069745;28;19968;-73
2022/09/09 07:26:12;;;;;;;;;;;14.90;99.90;;;;;;5078049;28;19930;-73
2022/09/09 07:28:43;;;;;;;;;;;14.90;99.90;;;;;;5056278;28;20019;-74
2022/09/09 07:31:17;;;;;;;;;;;14.80;99.90;;;;;;5045951;28;19995;-74
2022/09/09 07:33:49;;;;;;;;;;;14.80;99.90;;;;;;5058901;28;19939;-73
2022/09/09 07:36:23;;;;;;;;;;;14.80;99.90;;;;;;5066697;28;20402;-74
2022/09/09 07:38:56;;;;;;;;;;;14.80;99.90;;;;;;5055030;28;19982;-73
2022/09/09 07:41:34;;;;;;;;;;;14.80;99.90;;;;;;5055246;28;20463;-74
2022/09/09 07:44:08;;;;;;;;;;;14.90;99.90;;;;;;5044599;28;19928;-73
2022/09/09 07:46:35;;;;;;;;;;;14.90;99.90;;;;;;5077133;28;20318;-74
2022/09/09 07:49:10;;;;;;;;;;;15.00;99.90;;;;;;5052809;28;19931;-74
2022/09/09 07:51:44;;;;;;;;;;;15.00;99.90;;;;;;5051842;28;19924;-75
2022/09/09 07:54:23;;;;;;;;;;;15.10;99.90;;;;;;5049770;28;19928;-74
2022/09/09 07:56:55;;;;;;;;;;;15.10;99.90;;;;;;5056573;28;20044;-74
2022/09/09 07:59:25;;;;;;;;;;;15.20;99.90;;;;;;5065197;28;19932;-73
2022/09/09 08:01:54;;;;;;;;;;;15.30;99.90;;;;;;5045564;28;19932;-74
2022/09/09 08:04:29;;;;;;;;;;;15.30;99.90;;;;;;5064218;28;19932;-74
2022/09/09 08:07:03;;;;;;;;;;;15.40;99.90;;;;;;5047108;28;19924;-74
2022/09/09 08:09:42;;;;;;;;;;;15.50;99.90;;;;;;5082679;28;19928;-73
2022/09/09 08:12:19;;;;;;;;;;;15.50;99.90;;;;;;5066101;28;19931;-74
2022/09/09 08:14:51;;;;;;;;;;;15.60;99.90;;;;;;5051509;28;20017;-74
2022/09/09 08:17:27;;;;;;;;;;;15.80;99.90;;;;;;5069176;28;19964;-74
2022/09/09 08:20:05;;;;;;;;;;;16.00;99.90;;;;;;5031573;28;20280;-73
2022/09/09 08:22:37;;;;;;;;;;;16.20;99.90;;;;;;5053697;28;19971;-74
2022/09/09 08:25:10;;;;;;;;;;;16.30;99.90;;;;;;5065992;28;19936;-74
2022/09/09 08:27:42;;;;;;;;;;;16.50;99.90;;;;;;5049302;28;19975;-73
2022/09/09 08:30:14;;;;;;;;;;;16.70;99.90;;;;;;5050043;28;19972;-74
2022/09/09 08:32:46;;;;;;;;;;;16.80;99.90;;;;;;5062051;28;20458;-73
2022/09/09 08:35:20;;;;;;;;;;;17.00;99.90;;;;;;5059296;28;19931;-73
2022/09/09 08:37:53;;;;;;;;;;;17.10;99.90;;;;;;5051444;28;19924;-72
2022/09/09 08:40:25;;;;;;;;;;;17.20;99.90;;;;;;5061951;28;19925;-72
2022/09/09 08:42:59;;;;;;;;;;;17.30;99.90;;;;;;5048506;28;20414;-73
2022/09/09 08:45:35;;;;;;;;;;;17.30;99.90;;;;;;5050128;28;19928;-73
2022/09/09 08:48:25;;;;;;;;;;;17.10;99.90;;;;;;5047746;28;19928;-73
2022/09/09 08:51:01;;;;;;;;;;;17.10;99.90;;;;;;5060038;28;19933;-73
2022/09/09 08:53:42;;;;;;;;;;;17.10;99.90;;;;;;5066216;28;19932;-73
2022/09/09 08:56:11;;;;;;;;;;;17.00;99.90;;;;;;5059313;28;20369;-73
2022/09/09 08:58:48;;;;;;;;;;;17.00;99.90;;;;;;5060473;28;20329;-73
2022/09/09 09:01:27;;;;;;;;;;;17.00;99.90;;;;;;5042927;28;19924;-73
2022/09/09 09:04:11;;;;;;;;;;;17.10;99.90;;;;;;5069867;28;19991;-73
2022/09/09 09:06:46;;;;;;;;;;;17.10;99.90;;;;;;5063215;28;19931;-74
2022/09/09 09:09:27;;;;;;;;;;;17.10;99.90;;;;;;5049194;28;19925;-73
2022/09/09 09:12:03;;;;;;;;;;;17.20;99.90;;;;;;5065909;28;19936;-73
2022/09/09 09:14:37;;;;;;;;;;;17.30;99.90;;;;;;5047643;28;19968;-74
2022/09/09 09:17:13;;;;;;;;;;;17.40;99.90;;;;;;5065186;28;19932;-73
2022/09/09 09:19:46;;;;;;;;;;;17.60;99.90;;;;;;5048108;28;19929;-73
2022/09/09 09:22:41;;;;;;;;;;;17.70;99.90;;;;;;5049233;28;19924;-73
2022/09/09 09:25:17;;;;;;;;;;;17.80;99.90;;;;;;5056845;28;19924;-72
2022/09/09 09:28:06;;;;;;;;;;;17.70;99.90;;;;;;5057465;28;19931;-74
2022/09/09 09:30:45;;;;;;;;;;;17.70;99.90;;;;;;5054425;28;19928;-74
2022/09/09 09:33:20;;;;;;;;;;;17.80;99.90;;;;;;5062061;28;19936;-72
2022/09/09 09:35:51;;;;;;;;;;;17.90;99.90;;;;;;5077507;28;19928;-73
2022/09/09 09:38:24;;;;;;;;;;;17.80;99.90;;;;;;5048392;28;20402;-73
2022/09/09 09:41:01;;;;;;;;;;;17.90;99.90;;;;;;5080935;28;20413;-73
2022/09/09 09:43:33;;;;;;;;;;;17.90;99.90;;;;;;5057145;28;19932;-73
2022/09/09 09:46:20;;;;;;;;;;;18.00;99.90;;;;;;5047586;28;19928;-73
2022/09/09 09:48:59;;;;;;;;;;;18.00;99.90;;;;;;5067412;28;20026;-73
2022/09/09 09:51:28;;;;;;;;;;;18.10;99.90;;;;;;5056156;28;19931;-73
2022/09/09 09:54:24;;;;;;;;;;;18.10;99.90;;;;;;5055355;28;19924;-72
2022/09/09 09:56:54;;;;;;;;;;;18.20;99.90;;;;;;5058138;28;19928;-73
2022/09/09 09:59:29;;;;;;;;;;;18.30;99.90;;;;;;5060013;28;20015;-73
2022/09/09 10:02:13;;;;;;;;;;;18.40;99.90;;;;;;5057335;28;19924;-73
2022/09/09 10:04:48;;;;;;;;;;;18.40;99.90;;;;;;5062385;28;19976;-73
2022/09/09 10:07:17;;;;;;;;;;;18.40;99.90;;;;;;5057438;28;19928;-72
2022/09/09 10:09:56;;;;;;;;;;;18.50;99.90;;;;;;5074602;28;19929;-73
2022/09/09 10:12:46;;;;;;;;;;;18.50;99.90;;;;;;5053108;28;19929;-77
2022/09/09 10:15:29;;;;;;;;;;;18.50;99.90;;;;;;5074728;28;19924;-72
2022/09/09 10:18:21;;;;;;;;;;;18.50;99.90;;;;;;5058152;28;20308;-72
2022/09/09 10:21:00;;;;;;;;;;;18.50;99.90;;;;;;5074745;28;19927;-72
2022/09/09 10:23:40;;;;;;;;;;;18.60;99.90;;;;;;5077773;28;19924;-72
2022/09/09 10:26:22;;;;;;;;;;;18.50;99.90;;;;;;5061604;28;19928;-73
2022/09/09 10:29:00;;;;;;;;;;;18.50;99.90;;;;;;5057750;28;19924;-72
2022/09/09 10:31:31;;;;;;;;;;;18.50;99.90;;;;;;5069517;28;19925;-73
2022/09/09 10:34:10;;;;;;;;;;;18.50;99.90;;;;;;5056891;28;19947;-72
2022/09/09 10:36:46;;;;;;;;;;;18.50;99.90;;;;;;5077371;28;20322;-72
2022/09/09 10:39:40;;;;;;;;;;;18.50;99.90;;;;;;5062631;28;19925;-73
2022/09/09 10:42:16;;;;;;;;;;;18.50;99.90;;;;;;5058868;28;19932;-72
2022/09/09 10:44:52;;;;;;;;;;;18.70;99.90;;;;;;5080295;28;19975;-72
2022/09/09 10:47:28;;;;;;;;;;;18.80;99.90;;;;;;5072775;28;19928;-73
2022/09/09 10:50:02;;;;;;;;;;;18.90;99.90;;;;;;5041084;28;20342;-73
2022/09/09 10:53:03;;;;;;;;;;;19.00;99.90;;;;;;5075812;28;20402;-73
2022/09/09 10:55:38;;;;;;;;;;;19.00;99.90;;;;;;5032254;28;19986;-73
2022/09/09 10:58:30;;;;;;;;;;;19.10;99.90;;;;;;5058638;28;19924;-73
2022/09/09 11:01:09;;;;;;;;;;;19.10;99.90;;;;;;5055690;28;19947;-72
2022/09/09 11:03:42;;;;;;;;;;;18.90;99.90;;;;;;5054398;28;19925;-73
2022/09/09 11:06:17;;;;;;;;;;;18.90;99.90;;;;;;5056728;28;19940;-73
2022/09/09 11:08:49;;;;;;;;;;;19.00;99.90;;;;;;5088678;28;20395;-73
2022/09/09 11:11:30;;;;;;;;;;;19.00;99.90;;;;;;5059807;28;20329;-73
2022/09/09 11:14:05;;;;;;;;;;;19.10;99.90;;;;;;5076542;28;19925;-73
2022/09/09 11:16:49;;;;;;;;;;;19.10;99.90;;;;;;5075987;28;19928;-74
2022/09/09 11:19:34;;;;;;;;;;;19.20;99.90;;;;;;5059849;28;19928;-74
2022/09/09 11:22:08;;;;;;;;;;;19.30;99.90;;;;;;5075260;28;20138;-74
2022/09/09 11:24:42;;;;;;;;;;;19.40;99.90;;;;;;5059410;28;19924;-74
2022/09/09 11:27:24;;;;;;;;;;;19.50;99.90;;;;;;5074619;28;19929;-73
2022/09/09 11:30:05;;;;;;;;;;;19.40;99.90;;;;;;5066915;28;19994;-73
2022/09/09 11:32:40;;;;;;;;;;;19.50;99.90;;;;;;5077129;28;19988;-72
2022/09/09 11:35:32;;;;;;;;;;;19.50;99.90;;;;;;5066152;28;19970;-74
2022/09/09 11:38:16;;;;;;;;;;;19.60;99.90;;;;;;5059017;28;19929;-74
2022/09/09 11:40:54;;;;;;;;;;;19.70;99.90;;;;;;5058290;28;19924;-73
2022/09/09 11:43:38;;;;;;;;;;;19.80;99.90;;;;;;5034742;28;19929;-74
2022/09/09 11:46:05;;;;;;;;;;;20.00;99.90;;;;;;5049477;28;20387;-74
2022/09/09 11:48:34;;;;;;;;;;;20.30;99.90;;;;;;5069953;28;19924;-73
2022/09/09 11:51:30;;;;;;;;;;;20.30;99.90;;;;;;5053426;28;19929;-74
2022/09/09 11:54:02;;;;;;;;;;;20.30;99.90;;;;;;5061940;28;20453;-74
2022/09/09 11:56:42;;;;;;;;;;;20.40;99.90;;;;;;5055106;28;19968;-74
2022/09/09 11:59:21;;;;;;;;;;;20.50;99.90;;;;;;5056379;28;19924;-73
2022/09/09 12:01:56;;;;;;;;;;;20.50;99.90;;;;;;5075410;28;19974;-72
2022/09/09 12:04:25;;;;;;;;;;;20.60;99.90;;;;;;5055646;28;19986;-73
2022/09/09 12:06:59;;;;;;;;;;;20.50;99.90;;;;;;5078926;28;19936;-72
2022/09/09 12:09:33;;;;;;;;;;;20.50;99.90;;;;;;5058019;28;19924;-74
2022/09/09 12:12:25;;;;;;;;;;;20.60;99.90;;;;;;5079842;28;20298;-74
2022/09/09 12:14:59;;;;;;;;;;;20.60;99.90;;;;;;5052727;28;19928;-74
2022/09/09 12:17:33;;;;;;;;;;;20.60;99.90;;;;;;5043921;28;19931;-73
2022/09/09 12:20:19;;;;;;;;;;;20.50;99.90;;;;;;5057305;28;19924;-74
2022/09/09 12:22:53;;;;;;;;;;;20.60;99.90;;;;;;5055184;28;19955;-73
2022/09/09 12:25:43;;;;;;;;;;;20.80;99.90;;;;;;5054489;28;20445;-73
2022/09/09 12:28:17;;;;;;;;;;;20.90;99.90;;;;;;5069713;28;20334;-74
2022/09/09 12:30:52;;;;;;;;;;;21.10;99.90;;;;;;5047387;28;19924;-74
2022/09/09 12:33:24;;;;;;;;;;;21.20;99.90;;;;;;5059948;28;20319;-74
2022/09/09 12:35:57;;;;;;;;;;;21.00;99.90;;;;;;5072073;28;19933;-73
2022/09/09 12:38:39;;;;;;;;;;;21.00;99.90;;;;;;5063374;28;19928;-73
2022/09/09 12:41:27;;;;;;;;;;;21.00;99.90;;;;;;5065082;28;20440;-73
2022/09/09 12:44:05;;;;;;;;;;;21.00;99.90;;;;;;5066616;28;19928;-74
2022/09/09 12:46:32;;;;;;;;;;;21.20;99.90;;;;;;5076589;28;19987;-74
2022/09/09 12:49:04;;;;;;;;;;;21.30;99.90;;;;;;5048507;28;19933;-74
2022/09/09 12:51:37;;;;;;;;;;;21.20;99.90;;;;;;5059085;28;19982;-74
2022/09/09 12:54:12;;;;;;;;;;;21.20;99.90;;;;;;5068254;28;19924;-74
2022/09/09 12:56:48;;;;;;;;;;;21.30;99.90;;;;;;5040364;28;19925;-74
2022/09/09 12:59:24;;;;;;;;;;;21.40;99.90;;;;;;5061797;28;19925;-74
2022/09/09 13:01:58;;;;;;;;;;;21.40;99.90;;;;;;5063006;28;19924;-73
2022/09/09 13:04:30;;;;;;;;;;;21.10;99.90;;;;;;5067726;28;19924;-73
2022/09/09 13:07:06;;;;;;;;;;;20.80;99.90;;;;;;5080401;28;19931;-74
2022/09/09 13:09:38;;;;;;;;;;;20.50;99.90;;;;;;5049940;28;20387;-74
2022/09/09 13:12:13;;;;;;;;;;;20.30;99.90;;;;;;5050448;28;19925;-74
2022/09/09 13:14:48;;;;;;;;;;;20.20;99.90;;;;;;5070185;28;19928;-73
2022/09/09 13:17:23;;;;;;;;;;;20.10;99.90;;;;;;5054742;28;19952;-73
2022/09/09 13:19:56;;;;;;;;;;;20.10;99.90;;;;;;5077898;28;19978;-73
2022/09/09 13:22:34;;;;;;;;;;;20.00;99.90;;;;;;5052758;28;19928;-73
2022/09/09 13:25:08;;;;;;;;;;;20.00;99.90;;;;;;5070435;28;19929;-73
2022/09/09 13:27:39;;;;;;;;;;;19.80;99.90;;;;;;5069306;28;19978;-73
2022/09/09 13:30:22;;;;;;;;;;;19.70;99.90;;;;;;5053581;28;20145;-73
2022/09/09 13:33:08;;;;;;;;;;;19.70;99.90;;;;;;5048196;28;19929;-73
2022/09/09 13:35:49;;;;;;;;;;;19.70;99.90;;;;;;5045759;28;19932;-74
2022/09/09 13:38:21;;;;;;;;;;;19.40;99.90;;;;;;5054617;28;19924;-73
2022/09/09 13:48:58;;;;;;;;;;;18.60;99.90;;;;;;5073166;28;19955;-74
2022/09/09 13:51:33;;;;;;;;;;;18.70;99.90;;;;;;5056939;28;19928;-73
2022/09/09 13:54:06;;;;;;;;;;;18.70;99.90;;;;;;5041575;28;19940;-73
2022/09/09 13:56:39;;;;;;;;;;;18.70;99.90;;;;;;5072524;28;19932;-74
2022/09/09 13:59:09;;;;;;;;;;;18.80;99.90;;;;;;5064714;28;19994;-74
2022/09/09 14:01:41;;;;;;;;;;;19.00;99.90;;;;;;5051794;28;19936;-74
2022/09/09 14:04:12;;;;;;;;;;;19.20;99.90;;;;;;5070188;28;20307;-74
2022/09/09 14:06:44;;;;;;;;;;;19.60;99.90;;;;;;5074521;28;19928;-74
2022/09/09 14:09:12;;;;;;;;;;;20.00;99.90;;;;;;5065176;28;19959;-72
2022/09/09 14:11:45;;;;;;;;;;;20.30;99.90;;;;;;5059144;28;20429;-74
2022/09/09 14:14:17;;;;;;;;;;;20.40;99.90;;;;;;5053873;28;19925;-74
2022/09/09 14:16:48;;;;;;;;;;;20.40;99.90;;;;;;5052796;28;19928;-73
2022/09/09 14:19:15;;;;;;;;;;;20.50;99.90;;;;;;5074613;28;19935;-74
2022/09/09 14:21:46;;;;;;;;;;;20.70;99.90;;;;;;5073435;28;19928;-74
2022/09/09 14:24:18;;;;;;;;;;;21.00;99.90;;;;;;5056953;28;19925;-73
2022/09/09 14:26:45;;;;;;;;;;;21.30;99.90;;;;;;5072875;28;19975;-74
2022/09/09 14:29:17;;;;;;;;;;;21.60;99.90;;;;;;5043173;28;19978;-74
2022/09/09 14:31:48;;;;;;;;;;;21.90;99.90;;;;;;5064002;28;19978;-74
2022/09/09 14:34:15;;;;;;;;;;;22.10;99.90;;;;;;5082110;28;19928;-74
2022/09/09 14:36:47;;;;;;;;;;;22.00;99.90;;;;;;5070216;28;19951;-73
2022/09/09 14:39:18;;;;;;;;;;;21.90;99.90;;;;;;5072450;28;19975;-74
2022/09/09 14:41:45;;;;;;;;;;;22.20;99.90;;;;;;5069007;28;19924;-73
2022/09/09 14:44:17;;;;;;;;;;;22.30;99.90;;;;;;5038469;28;19928;-74
2022/09/09 14:46:51;;;;;;;;;;;22.50;99.90;;;;;;5065634;28;20291;-74
2022/09/09 14:49:23;;;;;;;;;;;22.80;99.90;;;;;;5073310;28;20386;-74
2022/09/09 14:51:54;;;;;;;;;;;23.20;99.90;;;;;;5072719;28;20395;-74
2022/09/09 14:54:26;;;;;;;;;;;23.40;99.90;;;;;;5072094;28;19924;-73
2022/09/09 14:56:57;;;;;;;;;;;23.40;99.90;;;;;;5053469;28;19925;-74
2022/09/09 14:59:29;;;;;;;;;;;23.10;99.90;;;;;;5050157;28;19928;-73
2022/09/09 15:02:03;;;;;;;;;;;23.00;99.90;;;;;;5050363;28;19997;-73
2022/09/09 15:04:35;;;;;;;;;;;22.60;99.90;;;;;;5054800;28;20005;-74
2022/09/09 15:07:07;;;;;;;;;;;22.50;99.90;;;;;;5071256;28;19959;-73
2022/09/09 15:09:33;;;;;;;;;;;21.90;99.90;;;;;;5071647;28;19924;-73
2022/09/09 15:12:05;;;;;;;;;;;21.40;99.90;;;;;;5067373;28;19978;-73